ZSAM

Xiamen Gaoqi International Airport

Xiamen, China
TAF ZSAM 200303Z 2006/2106 06006G11MPS 8000 SCT040 TX21/2006Z TN12/2021Z
Issued Valid From Valid To
Jan-20 @ 03:03 UTC
(8 hours ago)
Jan-20 @ 06:00 UTC
(5 hours ago)
Jan-21 @ 06:00 UTC
(in 19 hours)
Jan-20 @ 06:00 to Jan-21 @ 06:00
TAF ZSAM 200303Z 2006/2106 06006G11MPS 8000 SCT040 TX21/2006Z TN12/2021Z
Wind Visibility Clouds
60° at 12 knots
 Gusting to 21 knots
7,998 meters
  • Scattered at 4,000' AGL
TAF ZSAM 200303Z 2006/2106 06006G11MPS 8000 SCT040 TX21/2006Z TN12/2021Z
Issued Jan-20 @ 03:03 UTC
(8 hours ago)
Valid From Jan-20 @ 06:00 UTC
(5 hours ago)
Valid To Jan-21 @ 06:00 UTC
(in 19 hours)
Jan-20 @ 06:00 - Jan-21 @ 06:00
Wind Visibility
60° at 12 knots
 Gusting to 21 knots
7,998 meters
Clouds
  • Scattered at 4,000' AGL